Dieringer, Washington
Current Conditions -  °F | °C
As of 7:58 PM on Tuesday 21 Oct 2014 (Local Time) from KTCM Reporting Station
Broken Clouds Broken Clouds  
Wind Chill: 58°   Ceiling: 10000
Heat Index: 58°   Visibility: 10mi
Dew Point: 48°   Wind: 16mph
Humidity: 68%   Direction: 160°SSE
Pressure: 29.84"   Gusts: NA
Location:  47.2018°N, 122.233°W
Report Text: KTCM 220258Z AUTO 16014KT 10SM SCT070 BKN100 15/09 A2984 RMK AO2 CIG 070 RWY34 SLP109 T01470088 58017 $
Loading
Personal Weather Stations






























Interactive Weather Map
Tropical Storm Tracking
New forecast layout! Learn more

10-Day Weather Forecast

Advertisements
Track Severe Weather on mobile